createdAt,value
2019-03-20T00:00:12.913Z,9.73
2019-03-20T00:02:41.056Z,11.47
2019-03-20T00:05:09.251Z,8.77
2019-03-20T00:07:37.381Z,8.60
2019-03-20T00:10:06.875Z,12.47
2019-03-20T00:12:35.012Z,13.70
2019-03-20T00:15:04.307Z,9.57
2019-03-20T00:17:32.488Z,9.23
2019-03-20T00:20:00.656Z,10.17
2019-03-20T00:22:28.777Z,8.00
2019-03-20T00:24:56.913Z,12.67
2019-03-20T00:27:25.024Z,9.07
2019-03-20T00:29:53.232Z,11.77
2019-03-20T00:32:21.730Z,8.83
2019-03-20T00:35:00.349Z,9.43
2019-03-20T00:37:19.857Z,13.13
2019-03-20T00:39:48.035Z,9.73
2019-03-20T00:42:16.300Z,7.57
2019-03-20T00:44:44.441Z,7.73
2019-03-20T00:47:12.577Z,14.67
2019-03-20T00:49:40.730Z,7.23
2019-03-20T00:52:08.841Z,8.67
2019-03-20T00:54:36.996Z,13.70
2019-03-20T00:57:05.183Z,12.90
2019-03-20T00:59:33.316Z,11.90
2019-03-20T01:02:01.453Z,12.60
2019-03-20T01:04:29.610Z,9.43
2019-03-20T01:06:57.734Z,9.87
2019-03-20T01:09:25.870Z,19.33
2019-03-20T01:11:54.009Z,15.17
2019-03-20T01:14:22.124Z,8.60
2019-03-20T01:16:50.506Z,8.47
2019-03-20T01:19:18.632Z,8.33
2019-03-20T01:21:46.842Z,10.77
2019-03-20T01:24:14.978Z,10.17
2019-03-20T01:26:43.121Z,10.93
2019-03-20T01:29:11.240Z,7.80
2019-03-20T01:31:39.382Z,9.40
2019-03-20T01:34:07.830Z,10.77
2019-03-20T01:36:36.513Z,11.90
2019-03-20T01:39:05.883Z,10.40
2019-03-20T01:41:38.265Z,9.13
2019-03-20T01:44:04.005Z,12.83
2019-03-20T01:46:32.141Z,10.87
2019-03-20T01:49:00.254Z,10.47
2019-03-20T01:51:28.400Z,11.67
2019-03-20T01:53:56.814Z,11.90
2019-03-20T01:56:25.027Z,9.03
2019-03-20T01:58:53.665Z,9.57
2019-03-20T02:01:21.838Z,11.17
2019-03-20T02:03:49.953Z,7.37
2019-03-20T02:06:18.070Z,7.93
2019-03-20T02:08:46.220Z,7.13
2019-03-20T02:11:14.346Z,10.63
2019-03-20T02:13:42.501Z,11.47
2019-03-20T02:16:10.622Z,11.17
2019-03-20T02:18:38.849Z,11.80
2019-03-20T02:21:07.050Z,10.70
2019-03-20T02:23:35.253Z,7.87
2019-03-20T02:26:03.793Z,10.20
2019-03-20T02:28:31.945Z,10.67
2019-03-20T02:31:00.106Z,7.77
2019-03-20T02:33:28.242Z,10.17
2019-03-20T02:35:56.371Z,8.23
2019-03-20T02:38:24.580Z,11.00
2019-03-20T02:40:52.697Z,8.50
2019-03-20T02:43:20.905Z,5.47
2019-03-20T02:45:49.148Z,6.30
2019-03-20T02:48:17.340Z,7.17
2019-03-20T02:50:45.474Z,15.37
2019-03-20T02:53:13.658Z,7.83
2019-03-20T02:55:41.802Z,9.93
2019-03-20T02:58:10.018Z,10.80
2019-03-20T03:00:38.247Z,10.10
2019-03-20T03:03:06.359Z,6.40
2019-03-20T03:05:34.577Z,6.90
2019-03-20T03:08:02.711Z,7.13
2019-03-20T03:10:30.942Z,11.30
2019-03-20T03:12:59.430Z,10.07
2019-03-20T03:15:27.594Z,6.80
2019-03-20T03:17:55.725Z,7.10
2019-03-20T03:20:23.916Z,9.27
2019-03-20T03:22:52.143Z,12.43
2019-03-20T03:25:20.253Z,8.13
2019-03-20T03:27:48.480Z,7.57
2019-03-20T03:30:17.358Z,9.23
2019-03-20T03:32:46.524Z,8.23
2019-03-20T03:35:18.224Z,6.97
2019-03-20T03:37:45.067Z,7.27
2019-03-20T03:40:13.873Z,7.33
2019-03-20T03:42:42.053Z,7.77
2019-03-20T03:45:11.371Z,11.43
2019-03-20T03:47:39.555Z,7.27
2019-03-20T03:50:08.572Z,7.63
2019-03-20T03:52:36.847Z,7.13
2019-03-20T03:55:09.149Z,6.70
2019-03-20T03:57:37.442Z,7.33
2019-03-20T04:00:07.252Z,7.17
2019-03-20T04:02:35.446Z,10.73
2019-03-20T04:05:04.442Z,9.67
2019-03-20T04:07:32.765Z,11.00
2019-03-20T04:10:00.958Z,10.60
2019-03-20T04:12:29.101Z,10.73
2019-03-20T04:14:57.316Z,8.67
2019-03-20T04:17:26.492Z,7.87
2019-03-20T04:19:54.680Z,8.03
2019-03-20T04:22:22.947Z,9.93
2019-03-20T04:24:51.086Z,8.20
2019-03-20T04:27:19.319Z,5.50
2019-03-20T04:29:47.531Z,9.37
2019-03-20T04:32:15.783Z,9.00
2019-03-20T04:34:43.939Z,8.70
2019-03-20T04:37:12.076Z,6.37
2019-03-20T04:39:40.213Z,8.40
2019-03-20T04:42:08.427Z,8.40
2019-03-20T04:44:37.582Z,10.30
2019-03-20T04:47:05.792Z,13.67
2019-03-20T04:49:33.932Z,8.83
2019-03-20T04:52:02.142Z,6.40
2019-03-20T04:54:30.305Z,9.87
2019-03-20T04:56:58.433Z,7.27
2019-03-20T04:59:26.697Z,9.63
2019-03-20T05:01:54.928Z,5.57
2019-03-20T05:04:23.130Z,8.67
2019-03-20T05:06:58.778Z,6.97
2019-03-20T05:09:21.189Z,6.03
2019-03-20T05:11:49.346Z,3.97
2019-03-20T05:14:17.450Z,6.80
2019-03-20T05:16:45.605Z,4.87
2019-03-20T05:19:23.301Z,6.07
2019-03-20T05:21:51.459Z,7.73
2019-03-20T05:24:19.638Z,8.17
2019-03-20T05:26:47.813Z,3.47
2019-03-20T05:29:16.845Z,7.50
2019-03-20T05:31:44.973Z,4.43
2019-03-20T05:34:14.014Z,5.30
2019-03-20T05:36:42.144Z,6.90
2019-03-20T05:39:10.256Z,7.20
2019-03-20T05:41:38.377Z,6.70
2019-03-20T05:44:06.560Z,7.50
2019-03-20T05:46:34.949Z,9.67
2019-03-20T05:49:03.057Z,6.70
2019-03-20T05:51:31.191Z,7.03
2019-03-20T05:53:59.304Z,7.87
2019-03-20T05:56:27.414Z,8.00
2019-03-20T05:58:55.550Z,5.70
2019-03-20T06:01:23.697Z,5.97
2019-03-20T06:03:51.820Z,5.40
2019-03-20T06:06:19.937Z,5.00
2019-03-20T06:08:48.067Z,8.33
2019-03-20T06:11:16.176Z,14.27
2019-03-20T06:13:44.341Z,17.87
2019-03-20T06:16:12.483Z,26.37
2019-03-20T06:18:40.606Z,21.43
2019-03-20T06:21:08.731Z,6.80
2019-03-20T06:23:36.843Z,8.37
2019-03-20T06:26:04.991Z,10.77
2019-03-20T06:28:33.102Z,16.87
2019-03-20T06:31:01.240Z,6.80
2019-03-20T06:33:29.340Z,7.70
2019-03-20T06:35:57.468Z,10.47
2019-03-20T06:38:25.581Z,6.70
2019-03-20T06:40:53.709Z,5.10
2019-03-20T06:43:21.832Z,10.03
2019-03-20T06:45:49.960Z,6.73
2019-03-20T06:48:18.083Z,9.80
2019-03-20T06:50:46.211Z,5.90
2019-03-20T06:53:14.325Z,13.27
2019-03-20T06:55:42.443Z,9.07
2019-03-20T06:58:10.556Z,12.03
2019-03-20T07:00:40.225Z,10.80
2019-03-20T07:03:15.954Z,10.50
2019-03-20T07:05:54.762Z,10.63
2019-03-20T07:08:24.432Z,6.87
2019-03-20T07:11:03.342Z,8.47
2019-03-20T07:13:31.444Z,9.03
2019-03-20T07:15:59.565Z,8.43
2019-03-20T07:18:27.677Z,10.23
2019-03-20T07:20:55.805Z,8.43
2019-03-20T07:23:23.919Z,7.20
2019-03-20T07:25:52.123Z,10.47
2019-03-20T07:28:20.240Z,18.00
2019-03-20T07:30:48.350Z,8.63
2019-03-20T07:33:16.463Z,7.97
2019-03-20T07:35:44.912Z,8.17
2019-03-20T07:38:13.049Z,8.67
2019-03-20T07:40:41.157Z,7.47
2019-03-20T07:43:09.489Z,8.53
2019-03-20T07:45:37.674Z,8.03
2019-03-20T07:48:05.793Z,7.03
2019-03-20T07:50:33.910Z,7.63
2019-03-20T07:53:02.107Z,9.27
2019-03-20T07:55:30.223Z,7.13
2019-03-20T07:57:58.376Z,10.63
2019-03-20T08:00:26.606Z,7.17
2019-03-20T08:02:54.714Z,8.33
2019-03-20T08:05:29.195Z,6.93
2019-03-20T08:07:52.685Z,6.67
2019-03-20T08:10:20.824Z,8.73
2019-03-20T08:12:49.001Z,7.17
2019-03-20T08:15:17.308Z,8.20
2019-03-20T08:17:45.416Z,7.80
2019-03-20T08:20:15.085Z,8.63
2019-03-20T08:22:43.191Z,7.67
2019-03-20T08:25:11.401Z,7.53
2019-03-20T08:27:39.504Z,6.50
2019-03-20T08:30:09.169Z,5.73
2019-03-20T08:32:37.397Z,7.03
2019-03-20T08:35:06.776Z,7.77
2019-03-20T08:37:34.909Z,7.10
2019-03-20T08:40:03.804Z,6.23
2019-03-20T08:42:31.966Z,7.47
2019-03-20T08:45:00.412Z,4.77
2019-03-20T08:47:28.664Z,9.27
2019-03-20T08:49:56.765Z,8.47
2019-03-20T08:52:24.898Z,6.70
2019-03-20T08:54:53.018Z,8.20
2019-03-20T08:57:21.228Z,7.70
2019-03-20T08:59:49.336Z,5.60
2019-03-20T09:02:17.448Z,7.87
2019-03-20T09:04:45.586Z,6.30
2019-03-20T09:07:13.709Z,6.50
2019-03-20T09:09:41.841Z,5.77
2019-03-20T09:12:09.944Z,5.50
2019-03-20T09:14:38.082Z,7.27
2019-03-20T09:17:06.191Z,4.10
2019-03-20T09:19:34.329Z,6.53
2019-03-20T09:22:02.453Z,4.90
2019-03-20T09:24:30.575Z,4.60
2019-03-20T09:26:58.691Z,6.17
2019-03-20T09:29:35.624Z,5.17
2019-03-20T09:31:56.661Z,3.00
2019-03-20T09:34:24.801Z,5.77
2019-03-20T09:36:52.913Z,3.50
2019-03-20T09:39:21.098Z,4.53
2019-03-20T09:41:49.230Z,5.70
2019-03-20T09:44:17.353Z,3.37
2019-03-20T09:46:45.488Z,4.73
2019-03-20T09:49:13.609Z,5.40
2019-03-20T09:51:41.738Z,5.57
2019-03-20T09:54:09.844Z,6.33
2019-03-20T09:56:38.052Z,4.70
2019-03-20T09:59:06.247Z,5.57
2019-03-20T10:01:34.385Z,6.17
2019-03-20T10:04:02.499Z,7.90
2019-03-20T10:06:30.625Z,9.53
2019-03-20T10:08:58.768Z,13.03
2019-03-20T10:11:26.877Z,7.17
2019-03-20T10:13:55.008Z,6.07
2019-03-20T10:16:23.129Z,6.43
2019-03-20T10:18:51.265Z,7.90
2019-03-20T10:21:19.376Z,2.97
2019-03-20T10:23:47.514Z,3.20
2019-03-20T10:26:15.630Z,2.70
2019-03-20T10:28:43.761Z,2.67
2019-03-20T10:31:11.870Z,2.57
2019-03-20T10:33:40.084Z,4.53
2019-03-20T10:36:08.200Z,4.23
2019-03-20T10:38:36.303Z,4.07
2019-03-20T10:41:04.712Z,5.17
2019-03-20T10:43:32.820Z,1.90
2019-03-20T10:46:00.956Z,4.80
2019-03-20T10:48:29.072Z,5.20
2019-03-20T10:50:57.212Z,2.23
2019-03-20T10:53:25.316Z,3.43
2019-03-20T10:55:53.449Z,2.77
2019-03-20T10:58:21.564Z,3.50
2019-03-20T11:00:49.786Z,2.57
2019-03-20T11:03:17.896Z,2.23
2019-03-20T11:05:46.102Z,2.13
2019-03-20T11:08:14.308Z,3.33
2019-03-20T11:10:42.494Z,3.17
2019-03-20T11:13:10.688Z,2.60
2019-03-20T11:15:38.800Z,3.63
2019-03-20T11:18:07.006Z,1.80
2019-03-20T11:20:35.184Z,4.50
2019-03-20T11:23:03.392Z,4.10
2019-03-20T11:25:31.492Z,1.87
2019-03-20T11:27:59.636Z,3.27
2019-03-20T11:30:31.042Z,3.83
2019-03-20T11:32:59.148Z,2.80
2019-03-20T11:35:27.285Z,2.30
2019-03-20T11:37:55.473Z,2.37
2019-03-20T11:40:24.568Z,6.00
2019-03-20T11:42:52.690Z,4.50
2019-03-20T11:45:23.390Z,3.47
2019-03-20T11:47:50.713Z,5.03
2019-03-20T11:50:23.085Z,3.17
2019-03-20T11:52:51.201Z,1.63
2019-03-20T11:55:19.354Z,2.40
2019-03-20T11:57:47.474Z,3.07
2019-03-20T12:00:20.125Z,2.10
2019-03-20T12:02:48.228Z,2.53
2019-03-20T12:05:16.466Z,2.20
2019-03-20T12:07:44.686Z,4.23
2019-03-20T12:10:17.224Z,2.80
2019-03-20T12:12:45.372Z,2.63
2019-03-20T12:15:13.577Z,3.23
2019-03-20T12:17:41.698Z,4.90
2019-03-20T12:20:11.395Z,1.90
2019-03-20T12:22:39.580Z,3.60
2019-03-20T12:25:12.030Z,2.57
2019-03-20T12:27:40.162Z,2.93
2019-03-20T12:30:09.810Z,3.00
2019-03-20T12:32:37.945Z,2.77
2019-03-20T12:35:07.628Z,4.97
2019-03-20T12:37:35.736Z,2.80
2019-03-20T12:40:05.404Z,2.50
2019-03-20T12:42:33.517Z,2.73
2019-03-20T12:45:01.649Z,3.73
2019-03-20T12:47:29.828Z,4.77
2019-03-20T12:49:57.964Z,3.47
2019-03-20T12:52:26.072Z,3.30
2019-03-20T12:54:54.188Z,5.57
2019-03-20T12:57:22.326Z,3.10
2019-03-20T12:59:50.439Z,4.77
2019-03-20T13:02:18.570Z,3.23
2019-03-20T13:04:46.683Z,4.73
2019-03-20T13:07:14.812Z,3.70
2019-03-20T13:09:42.925Z,4.53
2019-03-20T13:12:11.121Z,3.87
2019-03-20T13:14:39.233Z,5.67
2019-03-20T13:17:07.381Z,8.40
2019-03-20T13:19:35.501Z,6.13
2019-03-20T13:22:03.698Z,4.70
2019-03-20T13:24:31.808Z,3.33
2019-03-20T13:27:00.017Z,4.47
2019-03-20T13:29:28.125Z,6.23
2019-03-20T13:31:56.249Z,5.30
2019-03-20T13:34:24.361Z,5.10
2019-03-20T13:36:52.560Z,4.60
2019-03-20T13:39:20.685Z,4.70
2019-03-20T13:41:48.851Z,5.10
2019-03-20T13:44:16.957Z,4.47
2019-03-20T13:46:45.113Z,3.63
2019-03-20T13:49:13.212Z,7.47
2019-03-20T13:51:41.426Z,5.20
2019-03-20T13:54:09.530Z,4.40
2019-03-20T13:56:37.662Z,4.90
2019-03-20T13:59:05.778Z,5.07
2019-03-20T14:01:34.222Z,5.77
2019-03-20T14:04:02.327Z,6.00
2019-03-20T14:06:30.452Z,5.73
2019-03-20T14:08:58.555Z,6.23
2019-03-20T14:11:26.693Z,7.03
2019-03-20T14:13:54.804Z,5.70
2019-03-20T14:16:22.945Z,7.90
2019-03-20T14:18:51.039Z,7.67
2019-03-20T14:21:19.260Z,6.87
2019-03-20T14:23:47.365Z,5.50
2019-03-20T14:26:15.498Z,6.90
2019-03-20T14:28:43.611Z,5.73
2019-03-20T14:31:11.750Z,8.10
2019-03-20T14:33:39.901Z,6.33
2019-03-20T14:36:08.003Z,6.17
2019-03-20T14:38:36.142Z,6.60
2019-03-20T14:41:04.263Z,6.23
2019-03-20T14:43:32.380Z,6.90
2019-03-20T14:46:01.133Z,5.47
2019-03-20T14:48:29.244Z,9.07
2019-03-20T14:50:57.402Z,7.87
2019-03-20T14:53:28.280Z,7.10
2019-03-20T14:55:56.384Z,6.40
2019-03-20T14:58:24.512Z,6.77
2019-03-20T15:00:52.636Z,7.83
2019-03-20T15:03:20.769Z,6.37
2019-03-20T15:05:48.948Z,5.00
2019-03-20T15:08:17.075Z,6.00
2019-03-20T15:10:46.266Z,5.47
2019-03-20T15:13:14.487Z,7.27
2019-03-20T15:15:46.740Z,5.70
2019-03-20T15:18:14.943Z,5.60
2019-03-20T15:20:43.054Z,8.90
2019-03-20T15:23:11.188Z,5.17
2019-03-20T15:25:39.304Z,8.40
2019-03-20T15:28:07.503Z,7.77
2019-03-20T15:30:35.712Z,4.43
2019-03-20T15:33:23.185Z,6.87
2019-03-20T15:35:51.652Z,10.27
2019-03-20T15:38:19.759Z,7.47
2019-03-20T15:40:55.900Z,4.83
2019-03-20T15:43:18.050Z,7.47
2019-03-20T15:45:46.231Z,5.77
2019-03-20T15:48:14.337Z,5.70
2019-03-20T15:50:42.477Z,6.90
2019-03-20T15:53:10.576Z,6.80
2019-03-20T15:55:42.046Z,6.17
2019-03-20T15:58:10.157Z,5.97
2019-03-20T16:00:38.283Z,5.97
2019-03-20T16:03:17.143Z,5.40
2019-03-20T16:05:45.388Z,5.40
2019-03-20T16:08:13.492Z,6.57
2019-03-20T16:10:41.687Z,6.27
2019-03-20T16:13:09.788Z,6.60
2019-03-20T16:15:37.985Z,5.20
2019-03-20T16:18:06.271Z,5.83
2019-03-20T16:20:34.402Z,11.57
2019-03-20T16:23:02.681Z,7.10
2019-03-20T16:25:30.803Z,5.43
2019-03-20T16:27:58.912Z,6.67
2019-03-20T16:30:30.781Z,6.83
2019-03-20T16:32:58.886Z,6.10
2019-03-20T16:35:27.011Z,7.07
2019-03-20T16:37:55.124Z,5.90
2019-03-20T16:40:24.417Z,7.03
2019-03-20T16:42:52.532Z,7.17
2019-03-20T16:45:22.183Z,6.63
2019-03-20T16:47:50.287Z,5.33
2019-03-20T16:50:18.424Z,6.97
2019-03-20T16:52:46.529Z,5.57
2019-03-20T16:55:15.128Z,7.23
2019-03-20T16:57:43.229Z,6.13
2019-03-20T17:00:12.892Z,8.07
2019-03-20T17:02:41.000Z,8.20
2019-03-20T17:05:09.212Z,7.40
2019-03-20T17:07:37.315Z,6.90
2019-03-20T17:10:06.984Z,5.13
2019-03-20T17:12:35.117Z,5.07
2019-03-20T17:15:04.896Z,7.50
2019-03-20T17:17:33.069Z,7.57
2019-03-20T17:20:01.320Z,6.60
2019-03-20T17:22:29.456Z,3.70
2019-03-20T17:24:57.661Z,6.20
2019-03-20T17:27:25.850Z,6.03
2019-03-20T17:29:53.965Z,7.83
2019-03-20T17:32:22.086Z,9.83
2019-03-20T17:34:50.188Z,5.83
2019-03-20T17:37:18.312Z,15.43
2019-03-20T17:39:46.449Z,6.60
2019-03-20T17:42:14.580Z,6.57
2019-03-20T17:44:42.756Z,9.77
2019-03-20T17:47:10.862Z,3.53
2019-03-20T17:49:38.996Z,4.40
2019-03-20T17:52:07.173Z,5.77
2019-03-20T17:54:35.323Z,6.60
2019-03-20T17:57:03.497Z,6.00
2019-03-20T17:59:31.631Z,8.00
2019-03-20T18:01:59.796Z,5.17
2019-03-20T18:04:27.924Z,5.30
2019-03-20T18:06:56.033Z,4.90
2019-03-20T18:09:24.156Z,4.60
2019-03-20T18:11:52.264Z,4.73
2019-03-20T18:14:20.404Z,5.83
2019-03-20T18:16:48.503Z,6.23
2019-03-20T18:19:16.687Z,7.27
2019-03-20T18:21:44.814Z,6.27
2019-03-20T18:24:12.991Z,6.87
2019-03-20T18:26:41.106Z,6.03
2019-03-20T18:29:09.243Z,4.90
2019-03-20T18:31:45.684Z,6.00
2019-03-20T18:34:07.483Z,4.10
2019-03-20T18:36:35.605Z,5.70
2019-03-20T18:39:05.380Z,4.80
2019-03-20T18:41:33.512Z,7.47
2019-03-20T18:44:01.618Z,5.70
2019-03-20T18:46:29.746Z,9.83
2019-03-20T18:48:57.863Z,4.87
2019-03-20T18:51:25.990Z,8.10
2019-03-20T18:53:54.099Z,5.73
2019-03-20T18:56:22.299Z,5.97
2019-03-20T18:58:50.405Z,6.97
2019-03-20T19:01:18.535Z,7.17
2019-03-20T19:03:47.104Z,7.73
2019-03-20T19:06:19.634Z,8.73
2019-03-20T19:08:47.860Z,7.37
2019-03-20T19:11:16.137Z,7.97
2019-03-20T19:13:44.315Z,7.57
2019-03-20T19:16:12.454Z,9.07
2019-03-20T19:18:40.568Z,9.00
2019-03-20T19:21:08.683Z,8.60
2019-03-20T19:23:36.885Z,6.80
2019-03-20T19:26:05.185Z,11.83
2019-03-20T19:28:33.290Z,9.37
2019-03-20T19:31:01.412Z,7.27
2019-03-20T19:33:29.860Z,9.17
2019-03-20T19:35:57.969Z,8.90
2019-03-20T19:38:34.442Z,9.23
2019-03-20T19:40:55.970Z,7.60
2019-03-20T19:43:24.069Z,7.43
2019-03-20T19:45:52.282Z,6.90
2019-03-20T19:48:20.393Z,8.73
2019-03-20T19:50:48.506Z,8.90
2019-03-20T19:53:16.657Z,11.33
2019-03-20T19:55:44.823Z,9.27
2019-03-20T19:58:12.945Z,10.50
2019-03-20T20:00:41.104Z,8.63
2019-03-20T20:03:09.293Z,11.10
2019-03-20T20:05:37.418Z,13.07
2019-03-20T20:08:05.631Z,10.97
2019-03-20T20:10:33.735Z,12.40
2019-03-20T20:13:01.890Z,11.07
2019-03-20T20:15:31.205Z,11.53
2019-03-20T20:17:59.315Z,11.70
2019-03-20T20:20:27.892Z,11.27
2019-03-20T20:22:56.090Z,11.27
2019-03-20T20:25:24.279Z,11.63
2019-03-20T20:27:52.392Z,13.80
2019-03-20T20:30:20.543Z,13.17
2019-03-20T20:32:48.649Z,14.40
2019-03-20T20:35:17.432Z,10.47
2019-03-20T20:37:45.946Z,9.20
2019-03-20T20:40:15.592Z,9.63
2019-03-20T20:42:43.715Z,13.40
2019-03-20T20:45:12.137Z,12.40
2019-03-20T20:47:40.324Z,11.37
2019-03-20T20:50:12.481Z,8.67
2019-03-20T20:52:40.684Z,11.30
2019-03-20T20:55:12.904Z,10.67
2019-03-20T20:57:41.204Z,11.13
2019-03-20T21:00:10.947Z,13.27
2019-03-20T21:02:39.055Z,10.83
2019-03-20T21:05:07.496Z,13.17
2019-03-20T21:07:35.620Z,12.67
2019-03-20T21:10:05.677Z,10.97
2019-03-20T21:12:33.813Z,16.70
2019-03-20T21:15:01.936Z,13.13
2019-03-20T21:17:31.676Z,14.37
2019-03-20T21:19:59.793Z,14.20
2019-03-20T21:22:32.300Z,13.50
2019-03-20T21:25:00.447Z,12.80
2019-03-20T21:27:35.873Z,12.10
2019-03-20T21:30:05.537Z,15.50
2019-03-20T21:32:41.200Z,14.03
2019-03-20T21:35:27.482Z,13.63
2019-03-20T21:38:04.886Z,12.63
2019-03-20T21:40:34.800Z,13.47
2019-03-20T21:43:21.216Z,14.67
2019-03-20T21:46:09.239Z,15.17
2019-03-20T21:48:37.413Z,13.10
2019-03-20T21:51:15.126Z,15.20
2019-03-20T21:53:50.595Z,12.40
2019-03-20T21:56:20.319Z,10.97
2019-03-20T21:58:55.724Z,13.63
2019-03-20T22:01:34.689Z,13.33
2019-03-20T22:04:02.865Z,13.00
2019-03-20T22:06:50.941Z,15.37
2019-03-20T22:09:20.146Z,9.27
2019-03-20T22:12:02.185Z,10.87
2019-03-20T22:14:30.333Z,9.93
2019-03-20T22:17:18.176Z,12.67
2019-03-20T22:20:04.606Z,11.63
2019-03-20T22:22:37.345Z,12.90
2019-03-20T22:25:07.051Z,11.70
2019-03-20T22:27:36.786Z,11.73
2019-03-20T22:30:06.479Z,10.50
2019-03-20T22:32:36.120Z,10.53
2019-03-20T22:35:22.607Z,10.53
2019-03-20T22:37:50.716Z,15.77
2019-03-20T22:40:37.387Z,10.23
2019-03-20T22:43:07.123Z,15.47
2019-03-20T22:45:48.857Z,11.47
2019-03-20T22:48:18.502Z,12.30
2019-03-20T22:50:48.151Z,10.87
2019-03-20T22:53:30.036Z,9.93
2019-03-20T22:55:59.763Z,14.07
2019-03-20T22:58:32.396Z,13.27
2019-03-20T23:01:00.922Z,10.70
2019-03-20T23:03:30.572Z,9.83
2019-03-20T23:05:58.817Z,11.37
2019-03-20T23:08:27.016Z,11.00
2019-03-20T23:10:55.327Z,12.50
2019-03-20T23:13:23.436Z,13.23
2019-03-20T23:15:51.542Z,11.60
2019-03-20T23:18:19.679Z,11.67
2019-03-20T23:20:47.905Z,12.47
2019-03-20T23:23:16.045Z,16.83
2019-03-20T23:25:44.328Z,10.20
2019-03-20T23:28:12.464Z,13.03
2019-03-20T23:30:40.572Z,11.63
2019-03-20T23:33:08.684Z,13.33
2019-03-20T23:35:36.813Z,10.67
2019-03-20T23:38:04.919Z,11.77
2019-03-20T23:40:33.050Z,13.10
2019-03-20T23:43:03.030Z,14.10
2019-03-20T23:45:31.168Z,12.27
2019-03-20T23:48:17.660Z,11.73
2019-03-20T23:50:46.325Z,12.47
2019-03-20T23:53:14.512Z,14.47
2019-03-20T23:55:42.799Z,13.23
2019-03-20T23:58:11.079Z,13.40
